Time;durP1;ratioP1;P1;durP2;ratioP2;P2;SDS_P1;SDS_P2;PMS_P1;PMS_P2;Temp;Humidity;BMP_temperature;BMP_pressure;BME280_temperature;BME280_humidity;BME280_pressure;Samples;Min_cycle;Max_cycle;Signal;HPM_P1;HPM_P2
2022/04/07 00:01:34;;;;;;;13.35;4.03;;;;;;;;;;5097638;28;20418;-73
2022/04/07 00:04:00;;;;;;;9.75;2.95;;;;;;;;;;5095853;28;20020;-73
2022/04/07 00:06:26;;;;;;;9.52;2.88;;;;;;;;;;5097598;28;20024;-72
2022/04/07 00:08:52;;;;;;;10.40;1.98;;;;;;;;;;5097473;28;20028;-72
2022/04/07 00:11:18;;;;;;;14.65;2.83;;;;;;;;;;5096999;28;20020;-73
2022/04/07 00:13:44;;;;;;;10.63;2.88;;;;;;;;;;5097460;28;20341;-72
2022/04/07 00:16:10;;;;;;;9.95;3.13;;;;;;;;;;5097499;28;20012;-73
2022/04/07 00:18:36;;;;;;;16.45;4.45;;;;;;;;;;5096883;28;20051;-73
2022/04/07 00:21:06;;;;;;;11.13;2.20;;;;;;;;;;5096134;28;20016;-73
2022/04/07 00:23:32;;;;;;;8.93;2.08;;;;;;;;;;5096812;28;20452;-72
2022/04/07 00:25:58;;;;;;;13.52;2.15;;;;;;;;;;5097312;28;20104;-73
2022/04/07 00:28:24;;;;;;;13.55;2.60;;;;;;;;;;5096051;28;20063;-73
2022/04/07 00:30:51;;;;;;;8.10;2.10;;;;;;;;;;5096083;28;20107;-73
2022/04/07 00:33:17;;;;;;;14.13;3.67;;;;;;;;;;5095562;28;20344;-73
2022/04/07 00:35:43;;;;;;;13.63;3.05;;;;;;;;;;5097176;28;20108;-73
2022/04/07 00:38:09;;;;;;;16.42;3.40;;;;;;;;;;5095562;28;20134;-73
2022/04/07 00:40:34;;;;;;;11.80;2.40;;;;;;;;;;5096964;28;20103;-73
2022/04/07 00:43:00;;;;;;;12.27;2.85;;;;;;;;;;5097142;28;20020;-74
2022/04/07 00:45:26;;;;;;;6.22;2.10;;;;;;;;;;5097123;28;20022;-73
2022/04/07 00:47:52;;;;;;;17.15;3.22;;;;;;;;;;5097042;28;20034;-73
2022/04/07 00:50:20;;;;;;;17.08;4.30;;;;;;;;;;5097146;28;20344;-73
2022/04/07 00:52:54;;;;;;;10.88;3.53;;;;;;;;;;5097052;28;20073;-73
2022/04/07 00:55:20;;;;;;;20.65;5.80;;;;;;;;;;5097063;28;20016;-73
2022/04/07 00:57:47;;;;;;;24.45;4.50;;;;;;;;;;5100397;28;20016;-73
2022/04/07 01:00:13;;;;;;;20.80;4.75;;;;;;;;;;5101099;28;20015;-73
2022/04/07 01:02:39;;;;;;;20.67;7.35;;;;;;;;;;5101050;28;20023;-72
2022/04/07 01:05:06;;;;;;;20.50;8.13;;;;;;;;;;5100624;28;20030;-72
2022/04/07 01:07:39;;;;;;;15.35;5.20;;;;;;;;;;5100925;28;20028;-73
2022/04/07 01:10:06;;;;;;;14.07;3.75;;;;;;;;;;5100938;28;20415;-73
2022/04/07 01:12:32;;;;;;;16.10;2.92;;;;;;;;;;5100869;28;20023;-72
2022/04/07 01:14:59;;;;;;;11.98;4.95;;;;;;;;;;5100798;28;20329;-73
2022/04/07 01:17:26;;;;;;;12.15;3.75;;;;;;;;;;5100759;28;20020;-73
2022/04/07 01:19:53;;;;;;;14.85;3.53;;;;;;;;;;5100846;28;20016;-72
2022/04/07 01:22:23;;;;;;;14.82;3.05;;;;;;;;;;5099554;28;20425;-73
2022/04/07 01:24:49;;;;;;;26.43;2.70;;;;;;;;;;5100613;28;20027;-73
2022/04/07 01:27:16;;;;;;;15.18;2.45;;;;;;;;;;5099080;28;20371;-72
2022/04/07 01:29:43;;;;;;;11.95;2.20;;;;;;;;;;5099382;28;20027;-73
2022/04/07 01:32:11;;;;;;;15.55;2.80;;;;;;;;;;5100508;28;20050;-73
2022/04/07 01:34:39;;;;;;;16.30;3.17;;;;;;;;;;5099256;28;20023;-74
2022/04/07 01:37:06;;;;;;;22.90;5.45;;;;;;;;;;5100327;28;20360;-73
2022/04/07 01:39:31;;;;;;;24.40;5.25;;;;;;;;;;5100122;28;20070;-73
2022/04/07 01:41:58;;;;;;;17.02;4.10;;;;;;;;;;5099703;28;20460;-72
2022/04/07 01:44:24;;;;;;;13.43;4.80;;;;;;;;;;5100169;28;20028;-73
2022/04/07 01:46:51;;;;;;;34.25;5.28;;;;;;;;;;5100124;28;20016;-73
2022/04/07 01:49:18;;;;;;;20.63;3.97;;;;;;;;;;5100013;28;20176;-73
2022/04/07 01:51:45;;;;;;;22.98;5.32;;;;;;;;;;5098225;28;20016;-72
2022/04/07 01:54:11;;;;;;;21.63;3.95;;;;;;;;;;5100105;28;20039;-72
2022/04/07 01:56:39;;;;;;;13.25;2.95;;;;;;;;;;5099989;28;20020;-73
2022/04/07 01:59:07;;;;;;;13.60;3.63;;;;;;;;;;5099915;28;20024;-73
2022/04/07 02:01:33;;;;;;;18.65;4.38;;;;;;;;;;5099361;28;20016;-73
2022/04/07 02:03:59;;;;;;;15.13;4.90;;;;;;;;;;5099878;28;20073;-73
2022/04/07 02:06:25;;;;;;;69.63;11.43;;;;;;;;;;5099804;28;20020;-73
2022/04/07 02:08:51;;;;;;;40.03;6.18;;;;;;;;;;5098032;28;20059;-72
2022/04/07 02:11:17;;;;;;;26.80;9.15;;;;;;;;;;5099600;28;20020;-73
2022/04/07 02:13:43;;;;;;;27.40;4.57;;;;;;;;;;5099601;28;20024;-73
2022/04/07 02:16:10;;;;;;;19.00;4.20;;;;;;;;;;5099661;28;20020;-73
2022/04/07 02:18:37;;;;;;;16.95;5.32;;;;;;;;;;5098200;28;20033;-73
2022/04/07 02:21:04;;;;;;;36.25;5.55;;;;;;;;;;5098633;28;20047;-73
2022/04/07 02:23:30;;;;;;;28.40;4.60;;;;;;;;;;5099413;28;20379;-73
2022/04/07 02:25:56;;;;;;;28.13;4.30;;;;;;;;;;5099153;28;20345;-72
2022/04/07 02:28:22;;;;;;;23.58;4.40;;;;;;;;;;5098167;28;20035;-73
2022/04/07 02:30:49;;;;;;;27.50;4.78;;;;;;;;;;5099354;28;20073;-73
2022/04/07 02:33:15;;;;;;;12.30;3.70;;;;;;;;;;5098724;28;20045;-74
2022/04/07 02:35:41;;;;;;;14.52;3.97;;;;;;;;;;5098703;28;20020;-73
2022/04/07 02:38:07;;;;;;;20.80;3.25;;;;;;;;;;5099208;28;20040;-74
2022/04/07 02:40:33;;;;;;;18.48;4.95;;;;;;;;;;5081088;28;20035;-73
2022/04/07 02:42:59;;;;;;;18.60;4.07;;;;;;;;;;5099214;28;20318;-76
2022/04/07 02:45:25;;;;;;;20.33;5.25;;;;;;;;;;5099152;28;20099;-74
2022/04/07 02:47:51;;;;;;;48.60;7.22;;;;;;;;;;5098371;28;20130;-75
2022/04/07 02:50:17;;;;;;;33.65;5.63;;;;;;;;;;5098444;28;20016;-74
2022/04/07 02:52:43;;;;;;;27.70;4.40;;;;;;;;;;5097824;28;20422;-74
2022/04/07 02:55:09;;;;;;;16.95;3.63;;;;;;;;;;5099029;28;20024;-74
2022/04/07 02:57:35;;;;;;;25.95;5.03;;;;;;;;;;5098995;28;20158;-74
2022/04/07 03:00:04;;;;;;;48.50;5.97;;;;;;;;;;5098096;28;20019;-75
2022/04/07 03:02:31;;;;;;;16.35;3.38;;;;;;;;;;5098886;28;20016;-76
2022/04/07 03:04:57;;;;;;;24.17;4.78;;;;;;;;;;5098443;28;20444;-75
2022/04/07 03:07:23;;;;;;;37.65;6.82;;;;;;;;;;5098170;28;20012;-74
2022/04/07 03:09:48;;;;;;;15.73;3.85;;;;;;;;;;5097997;28;20026;-74
2022/04/07 03:12:14;;;;;;;22.17;4.65;;;;;;;;;;5097419;28;20031;-73
2022/04/07 03:14:41;;;;;;;24.85;4.95;;;;;;;;;;5099196;28;20020;-76
2022/04/07 03:17:07;;;;;;;47.80;6.43;;;;;;;;;;5097987;28;20016;-74
2022/04/07 03:19:34;;;;;;;20.30;6.22;;;;;;;;;;5096978;28;20372;-76
2022/04/07 03:22:00;;;;;;;10.93;3.40;;;;;;;;;;5097502;28;20065;-76
2022/04/07 03:24:26;;;;;;;24.75;4.30;;;;;;;;;;5097242;28;20028;-75
2022/04/07 03:26:52;;;;;;;23.30;4.53;;;;;;;;;;5098408;28;20016;-75
2022/04/07 03:29:21;;;;;;;18.85;6.00;;;;;;;;;;5098390;28;20028;-78
2022/04/07 03:31:48;;;;;;;47.40;5.18;;;;;;;;;;5097729;28;20016;-74
2022/04/07 03:34:14;;;;;;;53.60;9.35;;;;;;;;;;5096602;28;20051;-74
2022/04/07 03:36:40;;;;;;;11.70;3.20;;;;;;;;;;5098572;28;20062;-77
2022/04/07 03:39:06;;;;;;;42.30;4.03;;;;;;;;;;5097357;28;20024;-76
2022/04/07 03:41:32;;;;;;;34.60;5.03;;;;;;;;;;5097639;28;20058;-74
2022/04/07 03:43:58;;;;;;;24.73;4.57;;;;;;;;;;5098288;28;20329;-76
2022/04/07 03:46:24;;;;;;;29.77;5.25;;;;;;;;;;5098124;28;20405;-75
2022/04/07 03:48:50;;;;;;;34.38;4.45;;;;;;;;;;5096698;28;20032;-73
2022/04/07 03:51:17;;;;;;;25.67;4.07;;;;;;;;;;5098083;28;20032;-76
2022/04/07 03:53:43;;;;;;;56.47;7.43;;;;;;;;;;5096729;28;20020;-76
2022/04/07 03:56:09;;;;;;;21.05;3.45;;;;;;;;;;5096828;28;20027;-78
2022/04/07 03:58:35;;;;;;;43.00;4.40;;;;;;;;;;5096397;28;20441;-74
2022/04/07 04:01:02;;;;;;;36.88;6.53;;;;;;;;;;5096601;28;20015;-74
2022/04/07 04:03:28;;;;;;;80.60;9.40;;;;;;;;;;5097820;28;20016;-75
2022/04/07 04:05:54;;;;;;;39.22;6.18;;;;;;;;;;5096633;28;20024;-74
2022/04/07 04:08:20;;;;;;;26.75;5.72;;;;;;;;;;5097991;28;20057;-77
2022/04/07 04:10:46;;;;;;;56.72;9.43;;;;;;;;;;5097505;28;20189;-72
2022/04/07 04:13:12;;;;;;;29.88;4.55;;;;;;;;;;5098074;28;20024;-74
2022/04/07 04:15:38;;;;;;;24.83;4.22;;;;;;;;;;5097674;28;20019;-74
2022/04/07 04:18:04;;;;;;;18.80;3.58;;;;;;;;;;5097656;28;20058;-74
2022/04/07 04:20:30;;;;;;;31.17;3.47;;;;;;;;;;5097761;28;20310;-76
2022/04/07 04:22:56;;;;;;;20.35;3.47;;;;;;;;;;5096828;28;20310;-76
2022/04/07 04:25:22;;;;;;;31.27;7.68;;;;;;;;;;5097561;28;20069;-74
2022/04/07 04:27:49;;;;;;;19.60;4.10;;;;;;;;;;5098252;28;20023;-77
2022/04/07 04:30:15;;;;;;;30.75;4.03;;;;;;;;;;5097517;28;20099;-73
2022/04/07 04:32:43;;;;;;;45.30;5.22;;;;;;;;;;5096963;28;20020;-73
2022/04/07 04:35:10;;;;;;;40.03;6.30;;;;;;;;;;5097400;28;20103;-73
2022/04/07 04:37:36;;;;;;;35.97;4.60;;;;;;;;;;5096737;28;20028;-74
2022/04/07 04:40:03;;;;;;;35.08;3.10;;;;;;;;;;5097502;28;20024;-75
2022/04/07 04:42:29;;;;;;;35.92;5.70;;;;;;;;;;5096744;28;20020;-74
2022/04/07 04:44:55;;;;;;;32.08;4.50;;;;;;;;;;5097108;28;20436;-73
2022/04/07 04:47:21;;;;;;;26.75;4.38;;;;;;;;;;5096538;28;20481;-74
2022/04/07 04:49:47;;;;;;;34.88;4.70;;;;;;;;;;5096573;28;20022;-75
2022/04/07 04:52:14;;;;;;;40.97;4.88;;;;;;;;;;5095888;28;20065;-75
2022/04/07 04:54:40;;;;;;;27.67;3.67;;;;;;;;;;5096627;28;20020;-75
2022/04/07 04:57:06;;;;;;;16.88;4.97;;;;;;;;;;5096483;28;20152;-73
2022/04/07 04:59:32;;;;;;;22.42;3.60;;;;;;;;;;5099011;28;20024;-73
2022/04/07 05:01:58;;;;;;;22.05;2.83;;;;;;;;;;5097415;28;20092;-74
2022/04/07 05:04:24;;;;;;;15.07;3.10;;;;;;;;;;5097040;28;20020;-74
2022/04/07 05:06:50;;;;;;;20.67;2.83;;;;;;;;;;5096402;28;20058;-74
2022/04/07 05:09:16;;;;;;;16.50;3.47;;;;;;;;;;5096965;28;20051;-74
2022/04/07 05:11:42;;;;;;;13.73;3.72;;;;;;;;;;5096449;28;20418;-73
2022/04/07 05:14:08;;;;;;;17.50;4.72;;;;;;;;;;5096975;28;20078;-74
2022/04/07 05:16:34;;;;;;;14.23;2.28;;;;;;;;;;5096318;28;20016;-75
2022/04/07 05:19:00;;;;;;;12.02;3.78;;;;;;;;;;5095657;28;20027;-73
2022/04/07 05:21:26;;;;;;;18.38;2.60;;;;;;;;;;5096431;28;20016;-74
2022/04/07 05:23:52;;;;;;;20.55;3.42;;;;;;;;;;5096564;28;20016;-73
2022/04/07 05:26:18;;;;;;;8.00;2.20;;;;;;;;;;5096887;28;20063;-76
2022/04/07 05:28:44;;;;;;;25.05;3.45;;;;;;;;;;5096722;28;20032;-74
2022/04/07 05:31:10;;;;;;;19.88;4.45;;;;;;;;;;5096783;28;20019;-73
2022/04/07 05:33:36;;;;;;;17.48;3.67;;;;;;;;;;5096695;28;20024;-73
2022/04/07 05:36:02;;;;;;;37.55;4.57;;;;;;;;;;5096134;28;20532;-74
2022/04/07 05:38:28;;;;;;;20.27;3.75;;;;;;;;;;5095972;28;20053;-74
2022/04/07 05:40:54;;;;;;;21.88;5.22;;;;;;;;;;5095488;28;20024;-73
2022/04/07 05:43:20;;;;;;;20.70;2.80;;;;;;;;;;5097224;28;20415;-74
2022/04/07 05:45:46;;;;;;;16.85;3.05;;;;;;;;;;5099762;28;20016;-74
2022/04/07 05:48:12;;;;;;;21.92;3.70;;;;;;;;;;5098354;28;20047;-75
2022/04/07 05:50:39;;;;;;;13.75;2.25;;;;;;;;;;5099498;28;20061;-74
2022/04/07 05:53:06;;;;;;;18.33;3.85;;;;;;;;;;5099772;28;20024;-74
2022/04/07 05:55:32;;;;;;;12.35;2.70;;;;;;;;;;5100053;28;20048;-74
2022/04/07 05:58:05;;;;;;;18.83;2.95;;;;;;;;;;5098650;28;20024;-74
2022/04/07 06:00:31;;;;;;;11.85;3.13;;;;;;;;;;5099958;28;20066;-75
2022/04/07 06:02:58;;;;;;;65.30;15.00;;;;;;;;;;5098676;28;20019;-74
2022/04/07 06:05:24;;;;;;;18.52;3.10;;;;;;;;;;5099961;28;20012;-74
2022/04/07 06:07:50;;;;;;;17.35;3.30;;;;;;;;;;5099118;28;20043;-73
2022/04/07 06:10:16;;;;;;;25.48;4.28;;;;;;;;;;5098538;28;20321;-73
2022/04/07 06:12:46;;;;;;;22.63;3.97;;;;;;;;;;5099683;28;20430;-74
2022/04/07 06:15:11;;;;;;;;;;;;;;;;;;5098695;28;20084;-74
2022/04/07 06:17:41;;;;;;;18.10;3.85;;;;;;;;;;5099074;28;20289;-74
2022/04/07 06:20:08;;;;;;;70.07;11.77;;;;;;;;;;5097556;28;20024;-75
2022/04/07 06:22:34;;;;;;;108.32;32.03;;;;;;;;;;5097265;28;20326;-74
2022/04/07 06:25:00;;;;;;;98.97;24.88;;;;;;;;;;5097997;28;20026;-72
2022/04/07 06:27:38;;;;;;;73.38;18.98;;;;;;;;;;5096849;28;20028;-73
2022/04/07 06:30:05;;;;;;;31.35;5.55;;;;;;;;;;5097454;28;20016;-73
2022/04/07 06:32:31;;;;;;;24.83;3.97;;;;;;;;;;5098026;28;20403;-75
2022/04/07 06:34:57;;;;;;;76.03;11.02;;;;;;;;;;5099246;28;20020;-73
2022/04/07 06:37:23;;;;;;;37.58;6.47;;;;;;;;;;5098749;28;20012;-72
2022/04/07 06:39:49;;;;;;;12.02;4.38;;;;;;;;;;5099801;28;20114;-72
2022/04/07 06:42:15;;;;;;;28.17;4.55;;;;;;;;;;5099199;28;20031;-72
2022/04/07 06:44:42;;;;;;;17.27;4.03;;;;;;;;;;5099146;28;20020;-73
2022/04/07 06:47:08;;;;;;;26.23;5.28;;;;;;;;;;5099077;28;20023;-72
2022/04/07 06:49:33;;;;;;;20.50;4.43;;;;;;;;;;5098991;28;20036;-72
2022/04/07 06:51:59;;;;;;;30.40;5.38;;;;;;;;;;5098903;28;20325;-72
2022/04/07 06:54:25;;;;;;;23.45;5.07;;;;;;;;;;5097102;28;20035;-72
2022/04/07 06:56:51;;;;;;;27.17;6.47;;;;;;;;;;5098856;28;20138;-72
2022/04/07 06:59:17;;;;;;;26.48;5.63;;;;;;;;;;5098850;28;20111;-72
2022/04/07 07:01:43;;;;;;;34.47;8.52;;;;;;;;;;5098760;28;20103;-72
2022/04/07 07:04:09;;;;;;;22.33;6.47;;;;;;;;;;5099152;28;20423;-72
2022/04/07 07:06:35;;;;;;;16.73;3.90;;;;;;;;;;5099250;28;20413;-72
2022/04/07 07:09:01;;;;;;;21.10;5.32;;;;;;;;;;5098729;28;20043;-72
2022/04/07 07:11:27;;;;;;;11.63;2.85;;;;;;;;;;5098588;28;20073;-72
2022/04/07 07:13:53;;;;;;;13.77;2.92;;;;;;;;;;5102030;28;20054;-72
2022/04/07 07:16:19;;;;;;;10.77;2.85;;;;;;;;;;5097919;28;20039;-73
2022/04/07 07:18:45;;;;;;;20.60;5.65;;;;;;;;;;5080268;28;20020;-72
2022/04/07 07:21:11;;;;;;;14.07;3.40;;;;;;;;;;5097837;28;20341;-72
2022/04/07 07:23:37;;;;;;;21.75;3.25;;;;;;;;;;5098288;28;20107;-72
2022/04/07 07:26:02;;;;;;;14.38;3.55;;;;;;;;;;5098313;28;20310;-72
2022/04/07 07:28:29;;;;;;;18.83;4.70;;;;;;;;;;5098138;28;20030;-73
2022/04/07 07:30:54;;;;;;;12.90;2.63;;;;;;;;;;5097568;28;20169;-72
2022/04/07 07:33:21;;;;;;;11.13;3.92;;;;;;;;;;5098130;28;20061;-72
2022/04/07 07:35:47;;;;;;;28.00;5.53;;;;;;;;;;5098125;28;20027;-72
2022/04/07 07:38:13;;;;;;;16.15;4.05;;;;;;;;;;5097988;28;20418;-72
2022/04/07 07:40:39;;;;;;;13.18;3.67;;;;;;;;;;5098013;28;20103;-73
2022/04/07 07:43:05;;;;;;;23.10;3.67;;;;;;;;;;5097421;28;20555;-72
2022/04/07 07:45:32;;;;;;;29.67;4.93;;;;;;;;;;5097981;28;20070;-72
2022/04/07 07:47:58;;;;;;;20.02;3.58;;;;;;;;;;5097264;28;20425;-72
2022/04/07 07:50:24;;;;;;;23.92;3.75;;;;;;;;;;5097894;28;20034;-72
2022/04/07 07:52:50;;;;;;;13.50;3.00;;;;;;;;;;5097722;28;20020;-72
2022/04/07 07:55:17;;;;;;;10.00;3.58;;;;;;;;;;5097746;28;20128;-72
2022/04/07 07:57:43;;;;;;;18.65;4.22;;;;;;;;;;5097733;28;20020;-72
2022/04/07 08:00:10;;;;;;;17.50;4.00;;;;;;;;;;5097656;28;20061;-72
2022/04/07 08:02:36;;;;;;;19.13;4.47;;;;;;;;;;5097560;28;20481;-72
2022/04/07 08:05:02;;;;;;;20.33;4.35;;;;;;;;;;5097014;28;20024;-72
2022/04/07 08:07:28;;;;;;;30.52;4.93;;;;;;;;;;5095507;28;20027;-72
2022/04/07 08:09:56;;;;;;;10.65;4.03;;;;;;;;;;5096980;28;20024;-72
2022/04/07 08:12:23;;;;;;;19.65;3.78;;;;;;;;;;5096384;28;20031;-73
2022/04/07 08:14:49;;;;;;;23.20;4.05;;;;;;;;;;5097346;28;20020;-73
2022/04/07 08:17:15;;;;;;;12.00;2.97;;;;;;;;;;5096766;28;20433;-72
2022/04/07 08:19:41;;;;;;;24.63;3.70;;;;;;;;;;5097381;28;20020;-72
2022/04/07 08:22:07;;;;;;;26.50;3.58;;;;;;;;;;5096819;28;20016;-72
2022/04/07 08:24:34;;;;;;;20.13;4.05;;;;;;;;;;5096779;28;20016;-72
2022/04/07 08:27:01;;;;;;;17.63;4.10;;;;;;;;;;5097216;28;20438;-73
2022/04/07 08:29:27;;;;;;;21.40;3.70;;;;;;;;;;5097279;28;20417;-72
2022/04/07 08:31:53;;;;;;;20.95;3.50;;;;;;;;;;5097297;28;20324;-72
2022/04/07 08:34:19;;;;;;;32.20;5.03;;;;;;;;;;5097614;28;20020;-73
2022/04/07 08:36:45;;;;;;;111.05;8.93;;;;;;;;;;5097695;28;20081;-73
2022/04/07 08:39:11;;;;;;;56.25;9.68;;;;;;;;;;5097214;28;20373;-74
2022/04/07 08:41:39;;;;;;;103.25;14.00;;;;;;;;;;5097229;28;20123;-73
2022/04/07 08:44:05;;;;;;;86.53;12.13;;;;;;;;;;5097092;28;20020;-73
2022/04/07 08:46:31;;;;;;;88.22;11.32;;;;;;;;;;5097186;28;20023;-72
2022/04/07 08:48:59;;;;;;;95.28;12.00;;;;;;;;;;5097069;28;20023;-73
2022/04/07 08:51:28;;;;;;;122.80;11.40;;;;;;;;;;5097126;28;20104;-73
2022/04/07 08:53:54;;;;;;;64.37;10.57;;;;;;;;;;5097167;28;20020;-73
2022/04/07 08:56:21;;;;;;;87.53;10.43;;;;;;;;;;5096640;28;20263;-74
2022/04/07 08:58:47;;;;;;;73.93;8.80;;;;;;;;;;5096483;28;20040;-74
2022/04/07 09:01:13;;;;;;;76.07;8.32;;;;;;;;;;5095862;28;20024;-76
2022/04/07 09:03:39;;;;;;;113.40;16.40;;;;;;;;;;5097052;28;20020;-73
2022/04/07 09:06:05;;;;;;;92.25;12.45;;;;;;;;;;5095949;28;20114;-76
2022/04/07 09:08:35;;;;;;;91.38;14.05;;;;;;;;;;5095627;28;20353;-75
2022/04/07 09:11:02;;;;;;;103.22;13.52;;;;;;;;;;5096501;28;20019;-76
2022/04/07 09:13:34;;;;;;;88.93;13.45;;;;;;;;;;5096917;28;20020;-74
2022/04/07 09:16:03;;;;;;;52.88;8.95;;;;;;;;;;5095769;28;20020;-73
2022/04/07 09:18:33;;;;;;;58.77;9.13;;;;;;;;;;5099223;28;20174;-74
2022/04/07 09:20:59;;;;;;;38.03;8.00;;;;;;;;;;5100529;28;20240;-74
2022/04/07 09:23:25;;;;;;;68.15;10.80;;;;;;;;;;5100968;28;20031;-73
2022/04/07 09:25:51;;;;;;;70.60;9.65;;;;;;;;;;5100207;28;20016;-76
2022/04/07 09:28:26;;;;;;;72.72;11.65;;;;;;;;;;5099407;28;20067;-73
2022/04/07 09:30:52;;;;;;;55.25;11.40;;;;;;;;;;5100530;28;20107;-73
2022/04/07 09:33:22;;;;;;;126.60;13.70;;;;;;;;;;5099394;28;20062;-73
2022/04/07 09:36:21;;;;;;;84.65;12.77;;;;;;;;;;5099363;28;20016;-73
2022/04/07 09:38:51;;;;;;;86.65;10.35;;;;;;;;;;5091982;28;20032;-76
2022/04/07 09:41:19;;;;;;;66.30;11.07;;;;;;;;;;5099207;28;20020;-74
2022/04/07 09:43:48;;;;;;;108.15;13.05;;;;;;;;;;5099806;28;20452;-76
2022/04/07 09:46:15;;;;;;;62.53;9.57;;;;;;;;;;5100245;28;20047;-74
2022/04/07 09:48:57;;;;;;;60.95;10.82;;;;;;;;;;5100310;28;20032;-76
2022/04/07 09:51:23;;;;;;;41.40;5.30;;;;;;;;;;5100221;28;20023;-73
2022/04/07 09:53:50;;;;;;;50.40;7.72;;;;;;;;;;5101657;28;20020;-74
2022/04/07 09:56:16;;;;;;;53.20;7.88;;;;;;;;;;5102004;28;20016;-73
2022/04/07 09:58:42;;;;;;;35.35;5.95;;;;;;;;;;5099983;28;20020;-73
2022/04/07 10:01:09;;;;;;;36.85;7.13;;;;;;;;;;5099433;28;20027;-72
2022/04/07 10:03:35;;;;;;;48.80;6.70;;;;;;;;;;5099879;28;20031;-74
2022/04/07 10:06:01;;;;;;;38.67;6.38;;;;;;;;;;5099843;28;20023;-74
2022/04/07 10:08:27;;;;;;;51.17;8.73;;;;;;;;;;5099793;28;20039;-74
2022/04/07 10:10:54;;;;;;;36.13;7.82;;;;;;;;;;5099179;28;20012;-72
2022/04/07 10:13:20;;;;;;;51.95;7.05;;;;;;;;;;5098056;28;20012;-73
2022/04/07 10:15:47;;;;;;;60.00;7.32;;;;;;;;;;5098451;28;20024;-74
2022/04/07 10:18:22;;;;;;;33.72;6.20;;;;;;;;;;5099672;28;20016;-72
2022/04/07 10:20:48;;;;;;;49.60;9.30;;;;;;;;;;5099693;28;20020;-77
2022/04/07 10:23:26;;;;;;;34.67;6.30;;;;;;;;;;5097937;28;20028;-73
2022/04/07 10:25:52;;;;;;;46.33;5.85;;;;;;;;;;5098953;28;20387;-74
2022/04/07 10:28:22;;;;;;;44.50;7.60;;;;;;;;;;5097676;28;20028;-73
2022/04/07 10:30:51;;;;;;;42.22;5.95;;;;;;;;;;5098957;28;20099;-73
2022/04/07 10:33:33;;;;;;;26.98;4.90;;;;;;;;;;5098820;28;20012;-73
2022/04/07 10:36:00;;;;;;;33.45;7.55;;;;;;;;;;5099328;28;20444;-73
2022/04/07 10:38:36;;;;;;;36.47;7.15;;;;;;;;;;5099024;28;20434;-73
2022/04/07 10:41:02;;;;;;;38.88;7.93;;;;;;;;;;5098067;28;20418;-73
2022/04/07 10:43:28;;;;;;;25.73;6.75;;;;;;;;;;5097506;28;20024;-72
2022/04/07 10:46:06;;;;;;;24.85;7.60;;;;;;;;;;5099120;28;20020;-72
2022/04/07 10:48:33;;;;;;;29.80;5.43;;;;;;;;;;5098422;28;20127;-72
2022/04/07 10:50:59;;;;;;;38.28;7.25;;;;;;;;;;5098957;28;20020;-73
2022/04/07 10:53:35;;;;;;;35.25;5.55;;;;;;;;;;5097233;28;20031;-73
2022/04/07 10:56:21;;;;;;;24.63;4.97;;;;;;;;;;5098915;28;20016;-73
2022/04/07 10:58:49;;;;;;;27.48;4.63;;;;;;;;;;5098784;28;20322;-73
2022/04/07 11:01:30;;;;;;;32.63;8.05;;;;;;;;;;5097519;28;20478;-73
2022/04/07 11:04:15;;;;;;;23.02;5.70;;;;;;;;;;5098756;28;20181;-72
2022/04/07 11:07:01;;;;;;;35.10;6.38;;;;;;;;;;5098670;28;20020;-73
2022/04/07 11:09:39;;;;;;;36.97;6.30;;;;;;;;;;5098439;28;20027;-72
2022/04/07 11:12:09;;;;;;;24.42;5.63;;;;;;;;;;5098069;28;20419;-74
2022/04/07 11:14:35;;;;;;;35.50;6.38;;;;;;;;;;5102351;28;20089;-73
2022/04/07 11:17:05;;;;;;;26.15;4.65;;;;;;;;;;5097393;28;20190;-73
2022/04/07 11:19:31;;;;;;;17.30;4.90;;;;;;;;;;5097938;28;20016;-73
2022/04/07 11:22:06;;;;;;;26.08;4.72;;;;;;;;;;5098393;28;20077;-72
2022/04/07 11:24:34;;;;;;;22.38;4.60;;;;;;;;;;5097107;28;20027;-73
2022/04/07 11:27:20;;;;;;;31.58;5.47;;;;;;;;;;5097775;28;20023;-73
2022/04/07 11:30:01;;;;;;;24.95;5.20;;;;;;;;;;5098178;28;20494;-73
2022/04/07 11:32:27;;;;;;;37.90;5.15;;;;;;;;;;5097088;28;20031;-72
2022/04/07 11:34:53;;;;;;;21.80;5.78;;;;;;;;;;5098086;28;20027;-72
2022/04/07 11:37:19;;;;;;;29.83;5.55;;;;;;;;;;5098188;28;20020;-72
2022/04/07 11:39:47;;;;;;;34.17;5.40;;;;;;;;;;5098395;28;20033;-72
2022/04/07 11:42:17;;;;;;;27.65;5.40;;;;;;;;;;5096642;28;20062;-72
2022/04/07 11:44:45;;;;;;;23.25;6.85;;;;;;;;;;5097990;28;20371;-73
2022/04/07 11:47:36;;;;;;;30.77;6.28;;;;;;;;;;5098012;28;20016;-72
2022/04/07 11:50:06;;;;;;;33.05;6.45;;;;;;;;;;5097872;28;20467;-72
2022/04/07 11:52:32;;;;;;;;;;;;;;;;;;5097744;28;20016;-72
2022/04/07 11:54:59;;;;;;;31.33;8.00;;;;;;;;;;5097831;28;19911;-72
2022/04/07 11:57:26;;;;;;;29.38;7.35;;;;;;;;;;5097259;28;20043;-72
2022/04/07 12:00:10;;;;;;;21.83;6.43;;;;;;;;;;5097754;28;20024;-73
2022/04/07 12:02:36;;;;;;;25.85;8.13;;;;;;;;;;5097143;28;20016;-72
2022/04/07 12:05:03;;;;;;;29.33;7.47;;;;;;;;;;5097639;28;20497;-72
2022/04/07 12:07:30;;;;;;;27.95;7.50;;;;;;;;;;5097424;28;20314;-72
2022/04/07 12:10:07;;;;;;;28.13;6.88;;;;;;;;;;5097766;28;20323;-72
2022/04/07 12:12:34;;;;;;;27.17;6.28;;;;;;;;;;5097569;28;20111;-72
2022/04/07 12:15:00;;;;;;;26.75;6.95;;;;;;;;;;5097510;28;20082;-72
2022/04/07 12:17:26;;;;;;;63.70;10.20;;;;;;;;;;5097526;28;20016;-72
2022/04/07 12:19:52;;;;;;;19.80;6.90;;;;;;;;;;5096982;28;20020;-72
2022/04/07 12:22:28;;;;;;;37.92;9.13;;;;;;;;;;5097442;28;20026;-72
2022/04/07 12:25:01;;;;;;;24.67;5.85;;;;;;;;;;5097401;28;20063;-72
2022/04/07 12:27:28;;;;;;;75.35;12.77;;;;;;;;;;5097359;28;20043;-72
2022/04/07 12:29:54;;;;;;;31.50;6.72;;;;;;;;;;5096745;28;20070;-72
2022/04/07 12:32:20;;;;;;;21.33;6.50;;;;;;;;;;5097338;28;20020;-72
2022/04/07 12:34:49;;;;;;;27.02;5.13;;;;;;;;;;5097295;28;20024;-72
2022/04/07 12:37:33;;;;;;;32.38;6.63;;;;;;;;;;5096661;28;20027;-72
2022/04/07 12:40:00;;;;;;;27.90;7.18;;;;;;;;;;5097757;28;20032;-72
2022/04/07 12:42:26;;;;;;;47.22;7.70;;;;;;;;;;5095870;28;20024;-72
2022/04/07 12:45:05;;;;;;;32.63;5.22;;;;;;;;;;5097146;28;20374;-72
2022/04/07 12:47:32;;;;;;;31.40;5.60;;;;;;;;;;5097229;28;20318;-72
2022/04/07 12:49:59;;;;;;;16.13;4.88;;;;;;;;;;5095649;28;20042;-72
2022/04/07 12:52:38;;;;;;;26.52;6.80;;;;;;;;;;5098260;28;20085;-71
2022/04/07 12:55:10;;;;;;;19.30;5.57;;;;;;;;;;5101284;28;20020;-71
2022/04/07 12:57:40;;;;;;;31.77;8.45;;;;;;;;;;5101001;28;20035;-72
2022/04/07 13:00:07;;;;;;;31.95;6.45;;;;;;;;;;5101069;28;20097;-72
2022/04/07 13:02:52;;;;;;;26.25;7.50;;;;;;;;;;5100605;28;20037;-72
2022/04/07 13:05:32;;;;;;;19.00;5.80;;;;;;;;;;5101053;28;20099;-71
2022/04/07 13:07:59;;;;;;;27.75;9.40;;;;;;;;;;5100396;28;20421;-71
2022/04/07 13:10:26;;;;;;;24.08;7.22;;;;;;;;;;5100944;28;20405;-72
2022/04/07 13:12:52;;;;;;;27.55;7.40;;;;;;;;;;5100959;28;20065;-72
2022/04/07 13:15:18;;;;;;;32.05;7.28;;;;;;;;;;5100882;28;20023;-71
2022/04/07 13:17:45;;;;;;;29.85;9.57;;;;;;;;;;5100173;28;20372;-72
2022/04/07 13:20:11;;;;;;;37.92;11.10;;;;;;;;;;5100257;28;20016;-72
2022/04/07 13:22:37;;;;;;;35.20;7.47;;;;;;;;;;5099357;28;20020;-71
2022/04/07 13:25:03;;;;;;;35.25;8.07;;;;;;;;;;5100169;28;20031;-71
2022/04/07 13:27:29;;;;;;;38.92;9.13;;;;;;;;;;5100673;28;20016;-71
2022/04/07 13:29:55;;;;;;;36.55;13.02;;;;;;;;;;5099950;28;20459;-72
2022/04/07 13:32:23;;;;;;;34.25;9.20;;;;;;;;;;5100505;28;20382;-71
2022/04/07 13:34:49;;;;;;;37.60;10.60;;;;;;;;;;5100480;28;20020;-71
2022/04/07 13:37:15;;;;;;;24.20;7.32;;;;;;;;;;5099964;28;20497;-71
2022/04/07 13:39:41;;;;;;;22.25;7.53;;;;;;;;;;5100813;28;20028;-71
2022/04/07 13:42:07;;;;;;;25.60;7.50;;;;;;;;;;5100601;28;20040;-71
2022/04/07 13:44:34;;;;;;;25.98;6.10;;;;;;;;;;5098990;28;20396;-71
2022/04/07 13:47:00;;;;;;;26.85;8.02;;;;;;;;;;5099719;28;20039;-71
2022/04/07 13:49:26;;;;;;;32.70;7.85;;;;;;;;;;5100174;28;20058;-71
2022/04/07 13:51:55;;;;;;;29.85;7.25;;;;;;;;;;5100172;28;20024;-72
2022/04/07 13:54:21;;;;;;;24.00;6.03;;;;;;;;;;5100182;28;20027;-73
2022/04/07 13:56:47;;;;;;;34.90;10.35;;;;;;;;;;5100012;28;20103;-71
2022/04/07 13:59:13;;;;;;;22.88;6.15;;;;;;;;;;5100121;28;20027;-72
2022/04/07 14:01:39;;;;;;;30.38;9.73;;;;;;;;;;5100008;28;20016;-71
2022/04/07 14:04:05;;;;;;;52.67;14.13;;;;;;;;;;5098663;28;20066;-71
2022/04/07 14:06:31;;;;;;;34.33;13.10;;;;;;;;;;5099956;28;20108;-71
2022/04/07 14:08:57;;;;;;;39.72;13.70;;;;;;;;;;5099817;28;20118;-71
2022/04/07 14:11:23;;;;;;;48.20;13.60;;;;;;;;;;5098117;28;20016;-71
2022/04/07 14:13:50;;;;;;;43.05;14.05;;;;;;;;;;5098605;28;20059;-72
2022/04/07 14:16:16;;;;;;;38.53;12.18;;;;;;;;;;5099719;28;20016;-73
2022/04/07 14:18:42;;;;;;;31.40;12.02;;;;;;;;;;5099064;28;20024;-72
2022/04/07 14:21:08;;;;;;;42.10;13.15;;;;;;;;;;5099657;28;20023;-72
2022/04/07 14:23:34;;;;;;;30.98;9.40;;;;;;;;;;5099633;28;20024;-71
2022/04/07 14:26:00;;;;;;;45.83;12.15;;;;;;;;;;5099555;28;20020;-74
2022/04/07 14:28:26;;;;;;;44.42;14.10;;;;;;;;;;5099428;28;20119;-71
2022/04/07 14:30:52;;;;;;;37.88;9.50;;;;;;;;;;5099475;28;20039;-71